sensor_id;sensor_type;location;lat;lon;timestamp;temperature;humidity
1103;DHT22;538;42.654;23.376;2023-04-15T00:01:20;8.70;25.20
1103;DHT22;538;42.654;23.376;2023-04-15T00:03:50;8.60;26.30
1103;DHT22;538;42.654;23.376;2023-04-15T00:06:19;8.50;25.50
1103;DHT22;538;42.654;23.376;2023-04-15T00:08:47;8.20;24.80
1103;DHT22;538;42.654;23.376;2023-04-15T00:11:15;8.20;25.30
1103;DHT22;538;42.654;23.376;2023-04-15T00:13:43;8.30;25.80
1103;DHT22;538;42.654;23.376;2023-04-15T00:16:10;8.10;26.40
1103;DHT22;538;42.654;23.376;2023-04-15T00:18:37;8.20;30.70
1103;DHT22;538;42.654;23.376;2023-04-15T00:21:04;8.30;34.20
1103;DHT22;538;42.654;23.376;2023-04-15T00:23:33;8.20;36.20
1103;DHT22;538;42.654;23.376;2023-04-15T00:26:01;8.20;36.10
1103;DHT22;538;42.654;23.376;2023-04-15T00:28:27;8.30;37.70
1103;DHT22;538;42.654;23.376;2023-04-15T00:30:55;8.40;40.00
1103;DHT22;538;42.654;23.376;2023-04-15T00:33:22;8.40;38.00
1103;DHT22;538;42.654;23.376;2023-04-15T00:35:50;8.50;38.00
1103;DHT22;538;42.654;23.376;2023-04-15T00:38:18;8.60;38.90
1103;DHT22;538;42.654;23.376;2023-04-15T00:40:46;8.80;41.80
1103;DHT22;538;42.654;23.376;2023-04-15T00:43:13;8.90;44.10
1103;DHT22;538;42.654;23.376;2023-04-15T00:45:41;9.00;43.60
1103;DHT22;538;42.654;23.376;2023-04-15T00:48:07;9.00;39.50
1103;DHT22;538;42.654;23.376;2023-04-15T00:53:03;9.10;35.90
1103;DHT22;538;42.654;23.376;2023-04-15T00:55:30;8.90;33.60
1103;DHT22;538;42.654;23.376;2023-04-15T00:57:58;9.10;32.50
1103;DHT22;538;42.654;23.376;2023-04-15T01:00:26;9.00;33.30
1103;DHT22;538;42.654;23.376;2023-04-15T01:02:53;9.10;35.70
1103;DHT22;538;42.654;23.376;2023-04-15T01:05:20;9.10;36.80
1103;DHT22;538;42.654;23.376;2023-04-15T01:10:15;9.00;35.50
1103;DHT22;538;42.654;23.376;2023-04-15T01:12:43;9.20;34.90
1103;DHT22;538;42.654;23.376;2023-04-15T01:15:12;9.00;34.70
1103;DHT22;538;42.654;23.376;2023-04-15T01:17:39;9.10;35.50
1103;DHT22;538;42.654;23.376;2023-04-15T01:20:07;9.00;33.10
1103;DHT22;538;42.654;23.376;2023-04-15T01:22:37;8.80;32.30
1103;DHT22;538;42.654;23.376;2023-04-15T01:25:08;8.80;30.80
1103;DHT22;538;42.654;23.376;2023-04-15T01:27:38;8.60;29.60
1103;DHT22;538;42.654;23.376;2023-04-15T01:30:06;8.60;29.10
1103;DHT22;538;42.654;23.376;2023-04-15T01:32:34;8.40;29.40
1103;DHT22;538;42.654;23.376;2023-04-15T01:35:01;8.30;30.30
1103;DHT22;538;42.654;23.376;2023-04-15T01:37:28;8.40;31.90
1103;DHT22;538;42.654;23.376;2023-04-15T01:39:55;8.40;31.90
1103;DHT22;538;42.654;23.376;2023-04-15T01:42:23;8.50;32.00
1103;DHT22;538;42.654;23.376;2023-04-15T01:44:51;8.30;30.00
1103;DHT22;538;42.654;23.376;2023-04-15T01:47:19;8.10;30.30
1103;DHT22;538;42.654;23.376;2023-04-15T01:49:46;8.00;30.40
1103;DHT22;538;42.654;23.376;2023-04-15T01:52:13;7.90;30.90
1103;DHT22;538;42.654;23.376;2023-04-15T01:54:40;7.90;30.50
1103;DHT22;538;42.654;23.376;2023-04-15T01:57:07;7.90;30.50
1103;DHT22;538;42.654;23.376;2023-04-15T01:59:34;7.60;30.40
1103;DHT22;538;42.654;23.376;2023-04-15T02:02:03;7.60;31.30
1103;DHT22;538;42.654;23.376;2023-04-15T02:04:30;7.50;32.20
1103;DHT22;538;42.654;23.376;2023-04-15T02:06:58;7.60;33.40
1103;DHT22;538;42.654;23.376;2023-04-15T02:09:26;7.70;33.80
1103;DHT22;538;42.654;23.376;2023-04-15T02:14:20;8.00;34.30
1103;DHT22;538;42.654;23.376;2023-04-15T02:16:47;8.00;34.50
1103;DHT22;538;42.654;23.376;2023-04-15T02:19:16;7.90;34.60
1103;DHT22;538;42.654;23.376;2023-04-15T02:21:43;8.10;35.60
1103;DHT22;538;42.654;23.376;2023-04-15T02:24:10;8.30;36.50
1103;DHT22;538;42.654;23.376;2023-04-15T02:26:37;8.20;37.00
1103;DHT22;538;42.654;23.376;2023-04-15T02:31:32;8.20;33.20
1103;DHT22;538;42.654;23.376;2023-04-15T02:34:02;8.10;33.50
1103;DHT22;538;42.654;23.376;2023-04-15T02:36:31;8.30;34.30
1103;DHT22;538;42.654;23.376;2023-04-15T02:38:59;8.30;34.90
1103;DHT22;538;42.654;23.376;2023-04-15T02:41:26;8.30;34.40
1103;DHT22;538;42.654;23.376;2023-04-15T02:43:53;8.40;35.10
1103;DHT22;538;42.654;23.376;2023-04-15T02:46:20;8.40;38.50
1103;DHT22;538;42.654;23.376;2023-04-15T02:48:47;8.40;39.10
1103;DHT22;538;42.654;23.376;2023-04-15T02:51:15;8.40;40.00
1103;DHT22;538;42.654;23.376;2023-04-15T02:53:45;8.50;41.20
1103;DHT22;538;42.654;23.376;2023-04-15T02:56:13;8.50;40.80
1103;DHT22;538;42.654;23.376;2023-04-15T02:58:42;8.40;40.70
1103;DHT22;538;42.654;23.376;2023-04-15T03:01:09;8.40;41.40
1103;DHT22;538;42.654;23.376;2023-04-15T03:03:36;8.60;42.10
1103;DHT22;538;42.654;23.376;2023-04-15T03:06:03;8.50;40.70
1103;DHT22;538;42.654;23.376;2023-04-15T03:08:30;8.30;38.80
1103;DHT22;538;42.654;23.376;2023-04-15T03:10:59;8.50;38.50
1103;DHT22;538;42.654;23.376;2023-04-15T03:13:27;8.40;38.30
1103;DHT22;538;42.654;23.376;2023-04-15T03:15:54;8.40;38.00
1103;DHT22;538;42.654;23.376;2023-04-15T03:18:21;8.40;37.40
1103;DHT22;538;42.654;23.376;2023-04-15T03:20:48;8.20;37.20
1103;DHT22;538;42.654;23.376;2023-04-15T03:23:15;8.30;36.50
1103;DHT22;538;42.654;23.376;2023-04-15T03:25:43;8.20;36.40
1103;DHT22;538;42.654;23.376;2023-04-15T03:28:11;8.20;37.40
1103;DHT22;538;42.654;23.376;2023-04-15T03:30:38;10.50;38.30
1103;DHT22;538;42.654;23.376;2023-04-15T03:33:06;8.10;37.30
1103;DHT22;538;42.654;23.376;2023-04-15T03:35:33;8.10;37.00
1103;DHT22;538;42.654;23.376;2023-04-15T03:38:00;8.10;35.00
1103;DHT22;538;42.654;23.376;2023-04-15T03:40:27;8.00;35.20
1103;DHT22;538;42.654;23.376;2023-04-15T03:42:54;8.00;35.40
1103;DHT22;538;42.654;23.376;2023-04-15T03:45:22;7.90;35.40
1103;DHT22;538;42.654;23.376;2023-04-15T03:47:49;7.80;35.30
1103;DHT22;538;42.654;23.376;2023-04-15T03:50:16;7.80;37.00
1103;DHT22;538;42.654;23.376;2023-04-15T03:52:44;7.70;37.70
1103;DHT22;538;42.654;23.376;2023-04-15T03:57:39;7.60;38.60
1103;DHT22;538;42.654;23.376;2023-04-15T04:00:07;7.50;39.70
1103;DHT22;538;42.654;23.376;2023-04-15T04:02:36;7.60;41.60
1103;DHT22;538;42.654;23.376;2023-04-15T04:05:03;7.60;42.90
1103;DHT22;538;42.654;23.376;2023-04-15T04:07:30;7.70;44.20
1103;DHT22;538;42.654;23.376;2023-04-15T04:09:58;7.70;44.30
1103;DHT22;538;42.654;23.376;2023-04-15T04:12:24;7.70;43.90
1103;DHT22;538;42.654;23.376;2023-04-15T04:17:19;7.70;43.30
1103;DHT22;538;42.654;23.376;2023-04-15T04:19:47;7.70;44.50
1103;DHT22;538;42.654;23.376;2023-04-15T04:22:14;7.40;44.90
1103;DHT22;538;42.654;23.376;2023-04-15T04:24:41;7.60;45.90
1103;DHT22;538;42.654;23.376;2023-04-15T04:27:08;7.70;45.40
1103;DHT22;538;42.654;23.376;2023-04-15T04:29:35;7.60;46.40
1103;DHT22;538;42.654;23.376;2023-04-15T04:32:02;7.50;47.80
1103;DHT22;538;42.654;23.376;2023-04-15T04:34:29;7.60;49.10
1103;DHT22;538;42.654;23.376;2023-04-15T04:36:58;7.50;49.30
1103;DHT22;538;42.654;23.376;2023-04-15T04:39:25;7.50;49.30
1103;DHT22;538;42.654;23.376;2023-04-15T04:41:52;7.60;49.80
1103;DHT22;538;42.654;23.376;2023-04-15T04:44:20;7.80;49.50
1103;DHT22;538;42.654;23.376;2023-04-15T04:46:47;7.90;50.40
1103;DHT22;538;42.654;23.376;2023-04-15T04:49:14;7.90;49.60
1103;DHT22;538;42.654;23.376;2023-04-15T04:51:41;8.00;48.70
1103;DHT22;538;42.654;23.376;2023-04-15T04:54:10;8.10;47.50
1103;DHT22;538;42.654;23.376;2023-04-15T04:56:37;8.10;46.20
1103;DHT22;538;42.654;23.376;2023-04-15T04:59:04;8.20;46.30
1103;DHT22;538;42.654;23.376;2023-04-15T05:01:31;8.20;46.10
1103;DHT22;538;42.654;23.376;2023-04-15T05:03:58;8.30;46.30
1103;DHT22;538;42.654;23.376;2023-04-15T05:06:25;8.30;45.60
1103;DHT22;538;42.654;23.376;2023-04-15T05:08:55;8.50;45.60
1103;DHT22;538;42.654;23.376;2023-04-15T05:11:24;8.60;44.50
1103;DHT22;538;42.654;23.376;2023-04-15T05:13:51;8.50;42.60
1103;DHT22;538;42.654;23.376;2023-04-15T05:16:18;8.70;38.90
1103;DHT22;538;42.654;23.376;2023-04-15T05:18:45;8.70;38.00
1103;DHT22;538;42.654;23.376;2023-04-15T05:21:12;8.50;38.10
1103;DHT22;538;42.654;23.376;2023-04-15T05:23:40;8.80;37.80
1103;DHT22;538;42.654;23.376;2023-04-15T05:26:07;8.70;36.90
1103;DHT22;538;42.654;23.376;2023-04-15T05:28:35;8.70;33.00
1103;DHT22;538;42.654;23.376;2023-04-15T05:31:02;8.70;33.40
1103;DHT22;538;42.654;23.376;2023-04-15T05:33:29;8.80;33.20
1103;DHT22;538;42.654;23.376;2023-04-15T05:35:56;8.80;33.80
1103;DHT22;538;42.654;23.376;2023-04-15T05:38:23;8.90;32.80
1103;DHT22;538;42.654;23.376;2023-04-15T05:40:50;8.80;32.30
1103;DHT22;538;42.654;23.376;2023-04-15T05:43:17;8.90;31.90
1103;DHT22;538;42.654;23.376;2023-04-15T05:45:45;8.90;31.70
1103;DHT22;538;42.654;23.376;2023-04-15T05:48:12;9.10;31.80
1103;DHT22;538;42.654;23.376;2023-04-15T05:50:40;9.30;31.90
1103;DHT22;538;42.654;23.376;2023-04-15T05:53:07;9.10;30.30
1103;DHT22;538;42.654;23.376;2023-04-15T05:55:35;9.10;31.00
1103;DHT22;538;42.654;23.376;2023-04-15T05:58:02;9.30;31.30
1103;DHT22;538;42.654;23.376;2023-04-15T06:00:29;9.40;30.90
1103;DHT22;538;42.654;23.376;2023-04-15T06:02:58;9.40;30.10
1103;DHT22;538;42.654;23.376;2023-04-15T06:05:25;9.40;31.00
1103;DHT22;538;42.654;23.376;2023-04-15T06:10:19;9.60;30.00
1103;DHT22;538;42.654;23.376;2023-04-15T06:12:46;9.80;28.80
1103;DHT22;538;42.654;23.376;2023-04-15T06:15:13;9.80;28.40
1103;DHT22;538;42.654;23.376;2023-04-15T06:17:41;9.70;28.50
1103;DHT22;538;42.654;23.376;2023-04-15T06:20:11;9.90;27.60
1103;DHT22;538;42.654;23.376;2023-04-15T06:30:01;10.30;25.60
1103;DHT22;538;42.654;23.376;2023-04-15T06:32:28;9.90;25.50
1103;DHT22;538;42.654;23.376;2023-04-15T06:39:51;10.00;23.40
1103;DHT22;538;42.654;23.376;2023-04-15T06:42:18;10.60;23.90
1103;DHT22;538;42.654;23.376;2023-04-15T06:44:45;10.60;23.80
1103;DHT22;538;42.654;23.376;2023-04-15T06:47:12;10.30;23.90
1103;DHT22;538;42.654;23.376;2023-04-15T06:49:40;11.10;24.70
1103;DHT22;538;42.654;23.376;2023-04-15T06:54:36;11.00;24.10
1103;DHT22;538;42.654;23.376;2023-04-15T07:01:57;11.40;22.40
1103;DHT22;538;42.654;23.376;2023-04-15T07:09:20;10.70;21.70
1103;DHT22;538;42.654;23.376;2023-04-15T07:11:48;11.40;21.70
1103;DHT22;538;42.654;23.376;2023-04-15T07:14:16;11.00;20.50
1103;DHT22;538;42.654;23.376;2023-04-15T07:24:06;11.80;21.50
1103;DHT22;538;42.654;23.376;2023-04-15T07:29:02;12.00;21.00
1103;DHT22;538;42.654;23.376;2023-04-15T07:33:56;11.40;19.20
1103;DHT22;538;42.654;23.376;2023-04-15T07:36:24;12.40;19.70
1103;DHT22;538;42.654;23.376;2023-04-15T07:41:20;12.20;19.60
1103;DHT22;538;42.654;23.376;2023-04-15T07:46:16;12.70;18.30
1103;DHT22;538;42.654;23.376;2023-04-15T07:48:43;12.60;18.50
1103;DHT22;538;42.654;23.376;2023-04-15T07:51:09;13.00;18.90
1103;DHT22;538;42.654;23.376;2023-04-15T07:53:37;12.60;18.30
1103;DHT22;538;42.654;23.376;2023-04-15T07:56:05;12.80;17.80
1103;DHT22;538;42.654;23.376;2023-04-15T08:01:00;12.80;17.10
1103;DHT22;538;42.654;23.376;2023-04-15T08:03:28;13.00;16.50
1103;DHT22;538;42.654;23.376;2023-04-15T08:05:56;13.30;16.60
1103;DHT22;538;42.654;23.376;2023-04-15T08:08:24;13.40;16.40
1103;DHT22;538;42.654;23.376;2023-04-15T08:10:51;13.80;16.80
1103;DHT22;538;42.654;23.376;2023-04-15T08:15:45;13.40;16.60
1103;DHT22;538;42.654;23.376;2023-04-15T08:18:12;13.50;16.90
1103;DHT22;538;42.654;23.376;2023-04-15T08:23:08;13.80;17.20
1103;DHT22;538;42.654;23.376;2023-04-15T08:30:32;14.60;15.10
1103;DHT22;538;42.654;23.376;2023-04-15T08:32:59;14.70;13.80
1103;DHT22;538;42.654;23.376;2023-04-15T08:37:55;14.40;12.10
1103;DHT22;538;42.654;23.376;2023-04-15T08:40:26;14.50;12.10
1103;DHT22;538;42.654;23.376;2023-04-15T08:45:25;14.70;13.40
1103;DHT22;538;42.654;23.376;2023-04-15T08:47:54;14.80;13.10
1103;DHT22;538;42.654;23.376;2023-04-15T08:50:23;14.90;11.60
1103;DHT22;538;42.654;23.376;2023-04-15T08:55:21;15.10;12.70
1103;DHT22;538;42.654;23.376;2023-04-15T08:57:50;15.40;11.50
1103;DHT22;538;42.654;23.376;2023-04-15T09:00:17;15.60;10.90
1103;DHT22;538;42.654;23.376;2023-04-15T09:07:39;16.00;8.20
1103;DHT22;538;42.654;23.376;2023-04-15T09:10:08;16.10;5.60
1103;DHT22;538;42.654;23.376;2023-04-15T09:12:36;16.50;5.70
1103;DHT22;538;42.654;23.376;2023-04-15T09:15:05;16.50;4.90
1103;DHT22;538;42.654;23.376;2023-04-15T09:17:32;16.70;4.80
1103;DHT22;538;42.654;23.376;2023-04-15T09:20:10;16.90;5.80
1103;DHT22;538;42.654;23.376;2023-04-15T09:25:24;17.30;3.40
1103;DHT22;538;42.654;23.376;2023-04-15T09:27:55;17.50;3.20
1103;DHT22;538;42.654;23.376;2023-04-15T09:30:23;18.00;2.10
1103;DHT22;538;42.654;23.376;2023-04-15T09:37:46;18.90;1.00
1103;DHT22;538;42.654;23.376;2023-04-15T09:40:13;18.60;1.00
1103;DHT22;538;42.654;23.376;2023-04-15T09:42:54;18.70;1.00
1103;DHT22;538;42.654;23.376;2023-04-15T09:45:22;18.70;1.00
1103;DHT22;538;42.654;23.376;2023-04-15T09:50:18;19.50;1.00
1103;DHT22;538;42.654;23.376;2023-04-15T09:55:14;19.10;1.00
1103;DHT22;538;42.654;23.376;2023-04-15T09:57:41;19.30;1.00
1103;DHT22;538;42.654;23.376;2023-04-15T10:00:11;19.10;1.00
1103;DHT22;538;42.654;23.376;2023-04-15T10:02:40;19.20;1.00
1103;DHT22;538;42.654;23.376;2023-04-15T10:05:09;19.50;1.00
1103;DHT22;538;42.654;23.376;2023-04-15T10:10:06;19.40;1.00
1103;DHT22;538;42.654;23.376;2023-04-15T10:12:35;19.60;1.00
1103;DHT22;538;42.654;23.376;2023-04-15T10:17:33;19.70;1.00
1103;DHT22;538;42.654;23.376;2023-04-15T10:29:52;20.50;1.00
1103;DHT22;538;42.654;23.376;2023-04-15T10:32:20;20.60;1.00
1103;DHT22;538;42.654;23.376;2023-04-15T10:34:51;20.60;1.00
1103;DHT22;538;42.654;23.376;2023-04-15T10:39:49;21.40;1.00
1103;DHT22;538;42.654;23.376;2023-04-15T10:47:18;21.30;1.00
1103;DHT22;538;42.654;23.376;2023-04-15T10:57:16;22.10;1.00
1103;DHT22;538;42.654;23.376;2023-04-15T11:00:01;22.50;1.00
1103;DHT22;538;42.654;23.376;2023-04-15T11:05:13;22.50;1.00
1103;DHT22;538;42.654;23.376;2023-04-15T11:07:48;22.90;1.00
1103;DHT22;538;42.654;23.376;2023-04-15T11:13:22;23.20;1.00
1103;DHT22;538;42.654;23.376;2023-04-15T11:15:55;23.30;1.00
1103;DHT22;538;42.654;23.376;2023-04-15T11:20:53;23.40;1.00
1103;DHT22;538;42.654;23.376;2023-04-15T11:25:57;23.10;1.00
1103;DHT22;538;42.654;23.376;2023-04-15T11:28:25;23.10;1.00
1103;DHT22;538;42.654;23.376;2023-04-15T11:30:53;23.70;1.00
1103;DHT22;538;42.654;23.376;2023-04-15T11:35:48;23.60;1.00
1103;DHT22;538;42.654;23.376;2023-04-15T11:38:15;23.00;1.00
1103;DHT22;538;42.654;23.376;2023-04-15T11:40:44;23.60;1.00
1103;DHT22;538;42.654;23.376;2023-04-15T11:43:12;23.70;1.00
1103;DHT22;538;42.654;23.376;2023-04-15T11:45:49;24.10;1.00
1103;DHT22;538;42.654;23.376;2023-04-15T11:48:17;23.80;1.00
1103;DHT22;538;42.654;23.376;2023-04-15T11:50:45;24.20;1.00
1103;DHT22;538;42.654;23.376;2023-04-15T11:53:13;24.50;1.00
1103;DHT22;538;42.654;23.376;2023-04-15T11:55:41;24.70;1.00
1103;DHT22;538;42.654;23.376;2023-04-15T12:03:16;24.90;1.00
1103;DHT22;538;42.654;23.376;2023-04-15T12:06:18;24.80;1.00
1103;DHT22;538;42.654;23.376;2023-04-15T18:38:59;15.60;1.00
1103;DHT22;538;42.654;23.376;2023-04-15T18:41:27;15.80;1.00
1103;DHT22;538;42.654;23.376;2023-04-15T18:43:54;15.50;1.00
1103;DHT22;538;42.654;23.376;2023-04-15T18:51:16;15.40;1.00
1103;DHT22;538;42.654;23.376;2023-04-15T18:56:12;15.30;1.00
1103;DHT22;538;42.654;23.376;2023-04-15T18:58:39;14.90;1.00
1103;DHT22;538;42.654;23.376;2023-04-15T19:01:07;15.30;1.00
1103;DHT22;538;42.654;23.376;2023-04-15T19:03:34;15.40;1.00
1103;DHT22;538;42.654;23.376;2023-04-15T19:08:30;15.50;1.00
1103;DHT22;538;42.654;23.376;2023-04-15T19:10:57;15.90;1.00
1103;DHT22;538;42.654;23.376;2023-04-15T19:15:52;15.40;1.00
1103;DHT22;538;42.654;23.376;2023-04-15T19:18:20;15.30;1.00
1103;DHT22;538;42.654;23.376;2023-04-15T19:20:47;15.20;1.00
1103;DHT22;538;42.654;23.376;2023-04-15T19:40:30;15.10;1.00
1103;DHT22;538;42.654;23.376;2023-04-15T19:42:57;15.10;1.00
1103;DHT22;538;42.654;23.376;2023-04-15T19:45:24;15.60;1.00
1103;DHT22;538;42.654;23.376;2023-04-15T19:47:52;15.10;1.00
1103;DHT22;538;42.654;23.376;2023-04-15T19:52:50;15.40;1.00
1103;DHT22;538;42.654;23.376;2023-04-15T19:55:17;15.30;1.00
1103;DHT22;538;42.654;23.376;2023-04-15T19:57:45;14.10;1.00
1103;DHT22;538;42.654;23.376;2023-04-15T20:00:12;14.80;1.00
1103;DHT22;538;42.654;23.376;2023-04-15T20:05:09;14.90;1.00
1103;DHT22;538;42.654;23.376;2023-04-15T20:07:36;14.80;1.00
1103;DHT22;538;42.654;23.376;2023-04-15T20:10:07;14.50;1.00
1103;DHT22;538;42.654;23.376;2023-04-15T20:12:37;14.80;1.00
1103;DHT22;538;42.654;23.376;2023-04-15T20:24:56;14.20;1.00
1103;DHT22;538;42.654;23.376;2023-04-15T20:29:50;14.30;1.00
1103;DHT22;538;42.654;23.376;2023-04-15T20:32:17;14.30;1.00
1103;DHT22;538;42.654;23.376;2023-04-15T20:34:46;14.30;1.00
1103;DHT22;538;42.654;23.376;2023-04-15T20:37:13;14.30;1.00
1103;DHT22;538;42.654;23.376;2023-04-15T20:39:41;14.30;1.20
1103;DHT22;538;42.654;23.376;2023-04-15T20:44:35;14.30;1.00
1103;DHT22;538;42.654;23.376;2023-04-15T20:47:03;14.30;1.00
1103;DHT22;538;42.654;23.376;2023-04-15T20:49:32;14.20;1.00
1103;DHT22;538;42.654;23.376;2023-04-15T20:52:00;14.20;1.30
1103;DHT22;538;42.654;23.376;2023-04-15T20:54:27;14.10;1.70
1103;DHT22;538;42.654;23.376;2023-04-15T20:56:55;13.90;1.90
1103;DHT22;538;42.654;23.376;2023-04-15T20:59:23;14.10;1.90
1103;DHT22;538;42.654;23.376;2023-04-15T21:01:50;14.50;2.00
1103;DHT22;538;42.654;23.376;2023-04-15T21:04:17;14.30;2.00
1103;DHT22;538;42.654;23.376;2023-04-15T21:06:45;14.00;1.80
1103;DHT22;538;42.654;23.376;2023-04-15T21:09:12;14.50;2.10
1103;DHT22;538;42.654;23.376;2023-04-15T21:14:08;14.20;2.00
1103;DHT22;538;42.654;23.376;2023-04-15T21:16:35;14.10;2.00
1103;DHT22;538;42.654;23.376;2023-04-15T21:21:30;14.30;2.20
1103;DHT22;538;42.654;23.376;2023-04-15T21:23:57;14.60;2.60
1103;DHT22;538;42.654;23.376;2023-04-15T21:31:21;14.80;3.00
1103;DHT22;538;42.654;23.376;2023-04-15T21:33:48;14.40;2.80
1103;DHT22;538;42.654;23.376;2023-04-15T21:36:15;14.00;2.80
1103;DHT22;538;42.654;23.376;2023-04-15T21:38:42;14.60;3.20
1103;DHT22;538;42.654;23.376;2023-04-15T21:41:09;14.50;3.00
1103;DHT22;538;42.654;23.376;2023-04-15T21:43:37;15.00;3.30
1103;DHT22;538;42.654;23.376;2023-04-15T21:46:03;15.00;3.30
1103;DHT22;538;42.654;23.376;2023-04-15T21:55:54;14.70;3.10
1103;DHT22;538;42.654;23.376;2023-04-15T22:00:48;14.80;5.00
1103;DHT22;538;42.654;23.376;2023-04-15T22:03:16;14.70;5.70
1103;DHT22;538;42.654;23.376;2023-04-15T22:08:12;14.80;8.20
1103;DHT22;538;42.654;23.376;2023-04-15T22:10:39;14.80;9.10
1103;DHT22;538;42.654;23.376;2023-04-15T22:15:35;14.60;10.50
1103;DHT22;538;42.654;23.376;2023-04-15T22:18:03;14.50;10.90
1103;DHT22;538;42.654;23.376;2023-04-15T22:20:30;14.60;11.40
1103;DHT22;538;42.654;23.376;2023-04-15T22:22:58;14.60;12.10
1103;DHT22;538;42.654;23.376;2023-04-15T22:25:28;14.60;12.50
1103;DHT22;538;42.654;23.376;2023-04-15T22:30:23;14.40;12.60
1103;DHT22;538;42.654;23.376;2023-04-15T22:32:50;14.50;12.60
1103;DHT22;538;42.654;23.376;2023-04-15T22:35:17;14.60;13.10
1103;DHT22;538;42.654;23.376;2023-04-15T22:37:44;14.20;13.00
1103;DHT22;538;42.654;23.376;2023-04-15T22:42:40;14.00;12.70
1103;DHT22;538;42.654;23.376;2023-04-15T22:50:03;13.90;12.40
1103;DHT22;538;42.654;23.376;2023-04-15T22:52:31;13.80;12.20
1103;DHT22;538;42.654;23.376;2023-04-15T22:57:27;13.60;11.70
1103;DHT22;538;42.654;23.376;2023-04-15T22:59:53;13.70;11.80
1103;DHT22;538;42.654;23.376;2023-04-15T23:02:20;13.70;11.80
1103;DHT22;538;42.654;23.376;2023-04-15T23:04:47;13.50;11.60
1103;DHT22;538;42.654;23.376;2023-04-15T23:14:38;13.20;11.40
1103;DHT22;538;42.654;23.376;2023-04-15T23:29:22;13.70;11.70
1103;DHT22;538;42.654;23.376;2023-04-15T23:31:50;13.70;11.80
1103;DHT22;538;42.654;23.376;2023-04-15T23:34:17;13.70;11.80
1103;DHT22;538;42.654;23.376;2023-04-15T23:36:44;13.80;11.60
1103;DHT22;538;42.654;23.376;2023-04-15T23:39:12;13.30;10.90
1103;DHT22;538;42.654;23.376;2023-04-15T23:44:06;13.70;10.60
1103;DHT22;538;42.654;23.376;2023-04-15T23:46:34;13.50;10.40
1103;DHT22;538;42.654;23.376;2023-04-15T23:49:03;13.60;9.50
